Bilbao Knutsen — ECER — position and weather

sailwx.info

Track history (hours):
 
Tides and Currents Weather Stations Pressure Air Temp Water Temp Dewpoint Dewpoint Depression Visibility Wind Speed Wind Dir Waves Ship Positions

Bilbao Knutsen

Last reported at 2018-Jun-22 20:00 UTC. Time now 2018-Jun-22 20:20 UTC.
Position S 32°46' W 071°30'.

Length 284 m; draft 11.3 m.

Type: Ship (hazmat cat A). MMSI: 224606000.

Date/timePositionNaut miles runAvg speedWind from/ knotsBaromVisibWave heightAir tempDewpointWater temp
2018-Jun-22 20:00S 32°46' W 071°30'0 0.0
2018-Jun-22 19:30S 32°46' W 071°30'0 0.0
2018-Jun-22 18:58S 32°46' W 071°30'0 0.0
2018-Jun-22 18:28S 32°46' W 071°30'0 0.0
2018-Jun-22 16:58S 32°46' W 071°30'0 0.0
2018-Jun-22 16:29S 32°46' W 071°30'0 0.1
2018-Jun-22 15:58S 32°46' W 071°30'1 1.8
2018-Jun-22 15:20S 32°45' W 071°31'2 2.8
2018-Jun-22 14:30S 32°45' W 071°34'611.7
2018-Jun-22 14:01S 32°46' W 071°41'611.6
2018-Jun-22 13:31S 32°48' W 071°48'4 6.0
2018-Jun-22 12:54S 32°49' W 071°43'511.9
2018-Jun-22 12:31S 32°52' W 071°40'611.5
2018-Jun-22 12:00S 32°57' W 071°36'3 0.1
2018-Jun-20 14:27S 32°59' W 071°34'0 0.1
2018-Jun-20 13:57S 32°59' W 071°34'2 0.1
2018-Jun-19 18:04S 32°57' W 071°36'0 6.9
2018-Jun-19 18:00S 32°57' W 071°36'4 7.8
2018-Jun-19 17:30S 32°55' W 071°40'611.1
2018-Jun-19 17:00S 32°56' W 071°46'  
Track history (hours):
 
Tides and Currents Weather Stations Pressure Air Temp Water Temp Dewpoint Dewpoint Depression Visibility Wind Speed Wind Dir Waves Ship Positions

Bilbao Knutsen

Last reported at 2018-Jun-22 20:00 UTC. Time now 2018-Jun-22 20:20 UTC.
Position S 32°46' W 071°30'.

Length 284 m; draft 11.3 m.

Type: Ship (hazmat cat A). MMSI: 224606000.

Date/timePositionNaut miles runAvg speedWind from/ knotsBaromVisibWave heightAir tempDewpointWater temp
2018-Jun-22 20:00S 32°46' W 071°30'0 0.0
2018-Jun-22 19:30S 32°46' W 071°30'0 0.0
2018-Jun-22 18:58S 32°46' W 071°30'0 0.0
2018-Jun-22 18:28S 32°46' W 071°30'0 0.0
2018-Jun-22 16:58S 32°46' W 071°30'0 0.0
2018-Jun-22 16:29S 32°46' W 071°30'0 0.1
2018-Jun-22 15:58S 32°46' W 071°30'1 1.8
2018-Jun-22 15:20S 32°45' W 071°31'2 2.8
2018-Jun-22 14:30S 32°45' W 071°34'611.7
2018-Jun-22 14:01S 32°46' W 071°41'611.6
2018-Jun-22 13:31S 32°48' W 071°48'4 6.0
2018-Jun-22 12:54S 32°49' W 071°43'511.9
2018-Jun-22 12:31S 32°52' W 071°40'611.5
2018-Jun-22 12:00S 32°57' W 071°36'3 0.1
2018-Jun-20 14:27S 32°59' W 071°34'0 0.1
2018-Jun-20 13:57S 32°59' W 071°34'2 0.1
2018-Jun-19 18:04S 32°57' W 071°36'0 6.9
2018-Jun-19 18:00S 32°57' W 071°36'4 7.8
2018-Jun-19 17:30S 32°55' W 071°40'611.1
2018-Jun-19 17:00S 32°56' W 071°46'  

Dump ship's entire track history